MOL Partner — 3EBZ5 — position and weather

sailwx.info

Track history (hours):
 
Tides and Currents Weather Stations Pressure Air Temp Water Temp Dewpoint Dewpoint Depression Visibility Wind Speed Wind Dir Waves Ship Positions

MOL Partner

Last reported at 2015-May-25 07:19 UTC. Time now 2015-May-25 09:36 UTC.
Position S 33°48' E 027°34'.

Length 293 m; draft 11.7 m.

Type: Ship (hazmat cat D). MMSI: 371303000.

Date/timePositionNaut miles runAvg speedWind from/ knotsBaromVisibWave heightAir tempDewpointWater temp
2015-May-25 07:19S 33°48' E 027°34'231 5.4
2015-May-23 12:25S 34°55' E 023°07'13413.1
2015-May-23 02:14S 35°13' E 020°25'13210.0
2015-May-22 13:05S 33°56' E 018°16'9 6.0
2015-May-22 11:33S 33°55' E 018°27'0 0.0
2015-May-22 10:33S 33°55' E 018°27'0 0.0
2015-May-22 09:33S 33°55' E 018°27'0 0.0
2015-May-22 08:33S 33°55' E 018°27'0 0.0
2015-May-22 07:33S 33°55' E 018°27'0 0.0
2015-May-22 06:33S 33°55' E 018°27'0 0.0
2015-May-22 05:33S 33°55' E 018°27'0 0.0
2015-May-22 04:33S 33°55' E 018°27'0 0.0
2015-May-22 03:33S 33°55' E 018°27'0 0.0
2015-May-22 02:27S 33°55' E 018°27'0 0.0
2015-May-22 01:33S 33°55' E 018°27'0 0.0
2015-May-22 00:33S 33°55' E 018°27'0 0.0
2015-May-21 23:30S 33°55' E 018°27'0 0.0
2015-May-21 22:33S 33°55' E 018°27'0 0.0
2015-May-21 21:33S 33°55' E 018°27'0 0.0
2015-May-21 20:33S 33°55' E 018°27'0 0.0
2015-May-21 19:33S 33°55' E 018°27'1 0.5
2015-May-21 18:33S 33°55' E 018°27'3 3.4
2015-May-21 17:33S 33°52' E 018°24'9 8.1
2015-May-21 16:23S 33°48' E 018°14'  
Track history (hours):
 
Tides and Currents Weather Stations Pressure Air Temp Water Temp Dewpoint Dewpoint Depression Visibility Wind Speed Wind Dir Waves Ship Positions

MOL Partner

Last reported at 2015-May-25 07:19 UTC. Time now 2015-May-25 09:36 UTC.
Position S 33°48' E 027°34'.

Length 293 m; draft 11.7 m.

Type: Ship (hazmat cat D). MMSI: 371303000.

Date/timePositionNaut miles runAvg speedWind from/ knotsBaromVisibWave heightAir tempDewpointWater temp
2015-May-25 07:19S 33°48' E 027°34'231 5.4
2015-May-23 12:25S 34°55' E 023°07'13413.1
2015-May-23 02:14S 35°13' E 020°25'13210.0
2015-May-22 13:05S 33°56' E 018°16'9 6.0
2015-May-22 11:33S 33°55' E 018°27'0 0.0
2015-May-22 10:33S 33°55' E 018°27'0 0.0
2015-May-22 09:33S 33°55' E 018°27'0 0.0
2015-May-22 08:33S 33°55' E 018°27'0 0.0
2015-May-22 07:33S 33°55' E 018°27'0 0.0
2015-May-22 06:33S 33°55' E 018°27'0 0.0
2015-May-22 05:33S 33°55' E 018°27'0 0.0
2015-May-22 04:33S 33°55' E 018°27'0 0.0
2015-May-22 03:33S 33°55' E 018°27'0 0.0
2015-May-22 02:27S 33°55' E 018°27'0 0.0
2015-May-22 01:33S 33°55' E 018°27'0 0.0
2015-May-22 00:33S 33°55' E 018°27'0 0.0
2015-May-21 23:30S 33°55' E 018°27'0 0.0
2015-May-21 22:33S 33°55' E 018°27'0 0.0
2015-May-21 21:33S 33°55' E 018°27'0 0.0
2015-May-21 20:33S 33°55' E 018°27'0 0.0
2015-May-21 19:33S 33°55' E 018°27'1 0.5
2015-May-21 18:33S 33°55' E 018°27'3 3.4
2015-May-21 17:33S 33°52' E 018°24'9 8.1
2015-May-21 16:23S 33°48' E 018°14'  

Dump ship's entire track history